Time;durP1;ratioP1;P1;durP2;ratioP2;P2;SDS_P1;SDS_P2;PMS_P1;PMS_P2;Temp;Humidity;BMP_temperature;BMP_pressure;BME280_temperature;BME280_humidity;BME280_pressure;Samples;Min_cycle;Max_cycle;Signal;HPM_P1;HPM_P2
2023/07/26 00:01:46;;;;;;;2.87;1.50;;;16.20;95.30;;;;;;5054559;28;20451;-68
2023/07/26 00:04:13;;;;;;;2.90;1.40;;;16.20;95.20;;;;;;5055001;28;20536;-68
2023/07/26 00:06:40;;;;;;;2.80;1.70;;;16.20;95.00;;;;;;5054579;28;20532;-68
2023/07/26 00:09:08;;;;;;;2.97;1.97;;;16.20;95.20;;;;;;5054523;28;20556;-69
2023/07/26 00:11:35;;;;;;;2.60;1.50;;;16.20;95.20;;;;;;5054527;28;20439;-68
2023/07/26 00:14:04;;;;;;;3.60;1.40;;;16.20;95.10;;;;;;5054788;28;20445;-68
2023/07/26 00:16:31;;;;;;;3.10;1.60;;;16.20;95.20;;;;;;5054565;28;20477;-68
2023/07/26 00:18:58;;;;;;;2.40;1.50;;;16.20;95.20;;;;;;5054665;28;20518;-68
2023/07/26 00:21:25;;;;;;;2.73;1.73;;;16.20;95.20;;;;;;5054571;28;20465;-68
2023/07/26 00:23:52;;;;;;;5.17;1.67;;;16.20;95.20;;;;;;5054355;28;20969;-68
2023/07/26 00:26:19;;;;;;;5.60;1.63;;;16.20;95.10;;;;;;5054279;28;20527;-68
2023/07/26 00:28:46;;;;;;;2.50;1.70;;;16.20;94.90;;;;;;5054755;28;20519;-68
2023/07/26 00:31:14;;;;;;;2.73;1.70;;;16.20;95.00;;;;;;5054362;28;20480;-72
2023/07/26 00:33:41;;;;;;;5.10;1.73;;;16.20;95.20;;;;;;5054359;28;20855;-68
2023/07/26 00:36:09;;;;;;;3.27;1.97;;;16.20;95.20;;;;;;5054352;28;20481;-69
2023/07/26 00:38:36;;;;;;;3.27;1.70;;;16.20;95.00;;;;;;5054313;28;20531;-68
2023/07/26 00:41:02;;;;;;;4.10;2.00;;;16.20;95.20;;;;;;5053917;28;21077;-68
2023/07/26 00:43:29;;;;;;;2.20;1.50;;;16.20;95.30;;;;;;5053866;28;20436;-68
2023/07/26 00:45:56;;;;;;;3.20;2.00;;;16.20;95.20;;;;;;5054441;28;20476;-68
2023/07/26 00:48:26;;;;;;;2.70;1.93;;;16.20;95.00;;;;;;5054029;28;20527;-68
2023/07/26 00:50:54;;;;;;;2.90;2.00;;;16.20;94.80;;;;;;5054052;28;20471;-69
2023/07/26 00:53:21;;;;;;;3.57;1.90;;;16.20;94.90;;;;;;5053999;28;20447;-68
2023/07/26 00:55:49;;;;;;;2.70;1.93;;;16.10;94.80;;;;;;5053734;28;20528;-68
2023/07/26 00:58:16;;;;;;;3.53;2.23;;;16.10;95.00;;;;;;5053991;28;20530;-68
2023/07/26 01:00:45;;;;;;;2.80;1.70;;;16.10;94.80;;;;;;5053776;28;20559;-69
2023/07/26 01:03:12;;;;;;;4.43;2.63;;;16.10;94.80;;;;;;5053389;28;20536;-69
2023/07/26 01:05:50;;;;;;;3.93;2.30;;;16.10;94.80;;;;;;5053778;28;20520;-68
2023/07/26 01:08:34;;;;;;;3.27;2.40;;;16.00;95.00;;;;;;5053975;28;20928;-68
2023/07/26 01:11:06;;;;;;;3.30;2.60;;;16.00;94.90;;;;;;5053929;28;20472;-68
2023/07/26 01:13:41;;;;;;;4.00;2.50;;;16.10;94.80;;;;;;5053699;28;20425;-68
2023/07/26 01:16:09;;;;;;;4.60;2.20;;;16.10;94.70;;;;;;5053286;28;20982;-68
2023/07/26 01:18:37;;;;;;;3.60;2.40;;;16.10;94.70;;;;;;5053238;28;20999;-68
2023/07/26 01:21:05;;;;;;;3.50;2.13;;;16.10;94.80;;;;;;5053384;28;21068;-68
2023/07/26 01:23:35;;;;;;;3.50;2.43;;;16.00;94.60;;;;;;5053519;28;20471;-68
2023/07/26 01:26:02;;;;;;;3.40;2.57;;;16.00;94.40;;;;;;5053460;28;20515;-68
2023/07/26 01:28:28;;;;;;;4.07;2.60;;;16.00;94.50;;;;;;5053135;28;21005;-68
2023/07/26 01:30:59;;;;;;;3.23;2.50;;;15.90;94.60;;;;;;5053464;28;20519;-68
2023/07/26 01:33:27;;;;;;;5.00;2.67;;;15.90;95.00;;;;;;5053305;28;20509;-68
2023/07/26 01:35:54;;;;;;;4.67;2.27;;;15.90;95.10;;;;;;5053312;28;20491;-68
2023/07/26 01:38:22;;;;;;;4.20;2.70;;;15.90;94.80;;;;;;5052467;28;20483;-68
2023/07/26 01:40:51;;;;;;;4.77;2.80;;;15.80;95.30;;;;;;5053179;28;20555;-68
2023/07/26 01:43:18;;;;;;;4.40;3.27;;;15.80;95.40;;;;;;5053241;28;20528;-68
2023/07/26 01:45:45;;;;;;;3.23;2.50;;;15.90;95.50;;;;;;5053520;28;20535;-68
2023/07/26 01:48:12;;;;;;;4.40;2.90;;;15.90;95.40;;;;;;5053138;28;20531;-68
2023/07/26 01:50:38;;;;;;;5.13;3.23;;;15.90;95.40;;;;;;5053054;28;20532;-68
2023/07/26 01:53:05;;;;;;;4.10;2.50;;;15.90;95.10;;;;;;5053127;28;20448;-68
2023/07/26 01:55:32;;;;;;;7.50;3.23;;;15.90;95.50;;;;;;5052790;28;20531;-68
2023/07/26 01:58:00;;;;;;;5.70;3.43;;;15.90;95.60;;;;;;5053205;28;20851;-68
2023/07/26 02:00:27;;;;;;;3.77;3.10;;;15.80;95.40;;;;;;5052994;28;20477;-68
2023/07/26 02:02:54;;;;;;;3.83;2.83;;;15.80;95.60;;;;;;5053127;28;20470;-68
2023/07/26 02:05:21;;;;;;;3.90;2.23;;;15.80;95.60;;;;;;5053302;28;20524;-68
2023/07/26 02:07:48;;;;;;;3.40;2.70;;;15.80;95.70;;;;;;5053026;28;20527;-68
2023/07/26 02:10:15;;;;;;;4.33;3.00;;;15.80;95.70;;;;;;5052564;28;20563;-68
2023/07/26 02:12:42;;;;;;;3.57;2.50;;;15.80;95.90;;;;;;5052972;28;20456;-68
2023/07/26 02:15:11;;;;;;;4.97;2.50;;;15.80;96.10;;;;;;5053038;28;20528;-68
2023/07/26 02:17:38;;;;;;;3.80;2.20;;;15.80;96.10;;;;;;5053140;28;20523;-68
2023/07/26 02:20:05;;;;;;;4.37;2.90;;;15.80;96.30;;;;;;5052830;28;20522;-68
2023/07/26 02:22:33;;;;;;;3.83;2.17;;;15.80;96.20;;;;;;5052805;28;20499;-68
2023/07/26 02:24:59;;;;;;;5.87;2.47;;;15.80;96.10;;;;;;5053210;28;20440;-68
2023/07/26 02:27:26;;;;;;;3.70;2.20;;;15.80;96.20;;;;;;5052839;28;20532;-68
2023/07/26 02:29:53;;;;;;;3.20;2.30;;;15.80;96.40;;;;;;5052546;28;20527;-68
2023/07/26 02:32:21;;;;;;;3.57;2.50;;;15.80;96.30;;;;;;5052423;28;20969;-68
2023/07/26 02:34:48;;;;;;;3.73;2.70;;;15.80;96.30;;;;;;5052831;28;20487;-68
2023/07/26 02:37:15;;;;;;;6.80;2.37;;;15.80;96.30;;;;;;5052757;28;20524;-68
2023/07/26 02:39:42;;;;;;;3.70;2.47;;;15.80;96.20;;;;;;5052846;28;20535;-68
2023/07/26 02:42:09;;;;;;;4.37;3.40;;;15.70;95.90;;;;;;5052387;28;20904;-68
2023/07/26 02:44:36;;;;;;;3.90;2.57;;;15.70;96.20;;;;;;5052854;28;20847;-68
2023/07/26 02:47:04;;;;;;;5.20;3.20;;;15.60;95.90;;;;;;5052611;28;20523;-68
2023/07/26 02:49:32;;;;;;;3.00;2.27;;;15.50;95.70;;;;;;5054000;28;20528;-68
2023/07/26 02:51:59;;;;;;;4.17;2.53;;;15.30;96.40;;;;;;5056041;28;20447;-68
2023/07/26 02:54:26;;;;;;;3.37;2.67;;;15.30;96.70;;;;;;5055930;28;20529;-68
2023/07/26 02:56:53;;;;;;;3.57;3.07;;;15.30;96.90;;;;;;5055857;28;21021;-69
2023/07/26 02:59:20;;;;;;;3.70;2.20;;;15.30;96.50;;;;;;5056181;28;20534;-68
2023/07/26 03:01:47;;;;;;;3.43;2.30;;;15.30;96.90;;;;;;5056038;28;20559;-68
2023/07/26 03:04:14;;;;;;;4.70;2.10;;;15.30;97.30;;;;;;5056370;28;20865;-68
2023/07/26 03:06:42;;;;;;;3.00;2.03;;;15.30;97.30;;;;;;5056042;28;20993;-68
2023/07/26 03:09:09;;;;;;;3.83;2.30;;;15.30;97.20;;;;;;5056301;28;20464;-68
2023/07/26 03:11:36;;;;;;;3.00;2.00;;;15.30;96.40;;;;;;5056064;28;20475;-68
2023/07/26 03:14:03;;;;;;;2.93;2.17;;;15.30;96.70;;;;;;5056236;28;20432;-68
2023/07/26 03:16:30;;;;;;;3.60;2.63;;;15.30;96.80;;;;;;5055836;28;20531;-68
2023/07/26 03:18:57;;;;;;;3.87;2.70;;;15.30;97.10;;;;;;5056190;28;20516;-68
2023/07/26 03:21:24;;;;;;;4.90;3.70;;;15.30;97.30;;;;;;5055632;28;20593;-68
2023/07/26 03:23:53;;;;;;;4.20;3.43;;;15.30;97.50;;;;;;5056097;28;20855;-68
2023/07/26 03:26:20;;;;;;;5.67;3.47;;;15.40;97.70;;;;;;5055968;28;20527;-68
2023/07/26 03:28:46;;;;;;;4.50;3.73;;;15.40;97.80;;;;;;5055533;28;20528;-68
2023/07/26 03:31:13;;;;;;;5.90;4.40;;;15.40;97.50;;;;;;5055338;28;20527;-67
2023/07/26 03:33:40;;;;;;;6.07;4.53;;;15.40;97.60;;;;;;5055178;28;20480;-68
2023/07/26 03:36:07;;;;;;;6.17;4.90;;;15.40;97.60;;;;;;5055636;28;20856;-68
2023/07/26 03:38:34;;;;;;;7.20;6.50;;;15.50;97.50;;;;;;5055561;28;20439;-68
2023/07/26 03:41:03;;;;;;;6.30;5.60;;;15.50;97.50;;;;;;5055437;28;20884;-68
2023/07/26 03:43:29;;;;;;;6.60;5.83;;;15.50;97.40;;;;;;5055405;28;20523;-68
2023/07/26 03:45:57;;;;;;;8.47;6.80;;;15.50;97.10;;;;;;5055343;28;20535;-68
2023/07/26 03:48:24;;;;;;;10.73;7.87;;;15.50;97.00;;;;;;5055315;28;20527;-68
2023/07/26 03:50:51;;;;;;;9.47;7.80;;;15.40;97.10;;;;;;5055143;28;20479;-68
2023/07/26 03:53:18;;;;;;;8.83;7.93;;;15.40;97.00;;;;;;5055161;28;20531;-68
2023/07/26 03:55:45;;;;;;;9.60;7.43;;;15.40;97.30;;;;;;5054933;28;20531;-68
2023/07/26 03:58:13;;;;;;;10.30;7.33;;;15.40;97.20;;;;;;5054825;28;20523;-73
2023/07/26 04:00:40;;;;;;;11.27;8.00;;;15.40;97.20;;;;;;5054285;28;20859;-67
2023/07/26 04:03:06;;;;;;;9.50;7.87;;;15.40;97.30;;;;;;5054966;28;20433;-68
2023/07/26 04:05:33;;;;;;;9.83;8.13;;;15.40;97.50;;;;;;5055060;28;20531;-68
2023/07/26 04:08:00;;;;;;;9.53;8.57;;;15.50;97.60;;;;;;5054669;28;20464;-69
2023/07/26 04:10:28;;;;;;;10.80;9.70;;;15.50;97.40;;;;;;5055080;28;20885;-69
2023/07/26 04:12:55;;;;;;;10.87;9.63;;;15.50;97.50;;;;;;5055175;28;20452;-68
2023/07/26 04:15:23;;;;;;;11.63;9.43;;;15.50;97.30;;;;;;5055057;28;20531;-68
2023/07/26 04:17:50;;;;;;;16.63;9.53;;;15.40;97.30;;;;;;5054684;28;20565;-68
2023/07/26 04:20:17;;;;;;;9.90;8.90;;;15.40;97.30;;;;;;5055107;28;20491;-68
2023/07/26 04:22:44;;;;;;;12.80;8.97;;;15.40;97.30;;;;;;5054869;28;20571;-68
2023/07/26 04:25:11;;;;;;;11.30;10.10;;;15.40;97.20;;;;;;5054859;28;20526;-68
2023/07/26 04:27:38;;;;;;;10.87;8.33;;;15.40;97.20;;;;;;5054796;28;20528;-68
2023/07/26 04:30:06;;;;;;;10.07;9.00;;;15.40;97.20;;;;;;5054783;28;20468;-68
2023/07/26 04:32:34;;;;;;;10.30;9.30;;;15.40;97.30;;;;;;5054279;28;20981;-68
2023/07/26 04:35:01;;;;;;;10.47;9.40;;;15.40;97.30;;;;;;5054670;28;20527;-68
2023/07/26 04:37:28;;;;;;;10.23;9.13;;;15.40;97.10;;;;;;5054483;28;20527;-68
2023/07/26 04:39:54;;;;;;;11.17;8.37;;;15.30;97.10;;;;;;5054659;28;20475;-68
2023/07/26 04:42:21;;;;;;;12.30;10.00;;;15.30;97.30;;;;;;5054489;28;20482;-68
2023/07/26 04:44:48;;;;;;;12.67;10.20;;;15.40;97.70;;;;;;5054779;28;20535;-68
2023/07/26 04:47:18;;;;;;;10.97;9.87;;;15.40;97.20;;;;;;5054478;28;20443;-68
2023/07/26 04:49:46;;;;;;;14.73;10.67;;;15.40;97.10;;;;;;5054461;28;20444;-68
2023/07/26 04:52:13;;;;;;;12.20;9.67;;;15.40;96.70;;;;;;5054372;28;20859;-68
2023/07/26 04:54:40;;;;;;;12.13;9.20;;;15.40;97.10;;;;;;5054526;28;20520;-68
2023/07/26 04:57:06;;;;;;;12.27;10.27;;;15.40;97.40;;;;;;5054343;28;20480;-68
2023/07/26 04:59:33;;;;;;;13.67;9.60;;;15.50;97.50;;;;;;5054180;28;20542;-68
2023/07/26 05:02:00;;;;;;;11.10;9.63;;;15.50;97.70;;;;;;5053978;28;20558;-68
2023/07/26 05:04:27;;;;;;;15.10;9.30;;;15.60;97.80;;;;;;5053850;28;21001;-68
2023/07/26 05:06:55;;;;;;;13.40;10.33;;;15.60;97.80;;;;;;5054138;28;20547;-68
2023/07/26 05:09:22;;;;;;;10.63;9.63;;;15.60;97.80;;;;;;5053891;28;20555;-68
2023/07/26 05:11:49;;;;;;;11.43;9.33;;;15.60;97.70;;;;;;5053876;28;20527;-68
2023/07/26 05:14:17;;;;;;;11.13;10.07;;;15.50;97.60;;;;;;5053740;28;20535;-68
2023/07/26 05:16:44;;;;;;;13.03;10.70;;;15.50;97.90;;;;;;5053533;28;20448;-70
2023/07/26 05:19:11;;;;;;;11.70;10.20;;;15.50;97.50;;;;;;5053988;28;20524;-68
2023/07/26 05:21:37;;;;;;;11.80;9.10;;;15.50;97.70;;;;;;5053835;28;20483;-68
2023/07/26 05:24:06;;;;;;;13.33;9.53;;;15.50;97.40;;;;;;5054151;28;20523;-68
2023/07/26 05:26:33;;;;;;;14.00;7.60;;;15.60;97.10;;;;;;5054091;28;20531;-68
2023/07/26 05:29:00;;;;;;;6.27;4.87;;;15.50;96.40;;;;;;5053418;28;20998;-68
2023/07/26 05:31:27;;;;;;;3.57;1.63;;;15.40;95.50;;;;;;5053390;28;21010;-68
2023/07/26 05:33:54;;;;;;;3.20;1.90;;;15.20;93.30;;;;;;5053671;28;20535;-68
2023/07/26 05:36:21;;;;;;;2.13;1.17;;;15.00;92.90;;;;;;5053714;28;20520;-68
2023/07/26 05:38:49;;;;;;;2.00;0.97;;;14.90;92.60;;;;;;5053654;28;20858;-68
2023/07/26 05:41:17;;;;;;;1.90;0.90;;;14.70;92.80;;;;;;5053534;28;20522;-68
2023/07/26 05:43:44;;;;;;;4.83;1.50;;;14.50;93.30;;;;;;5053314;28;20965;-68
2023/07/26 05:46:11;;;;;;;1.60;0.80;;;14.40;93.50;;;;;;5053236;28;21036;-67
2023/07/26 05:48:37;;;;;;;3.63;0.80;;;14.30;93.30;;;;;;5053543;28;20526;-68
2023/07/26 05:51:07;;;;;;;1.80;0.90;;;14.30;93.70;;;;;;5053800;28;20523;-68
2023/07/26 05:53:33;;;;;;;1.80;0.70;;;14.30;94.30;;;;;;5053433;28;20491;-68
2023/07/26 05:56:00;;;;;;;1.70;0.63;;;14.20;93.50;;;;;;5053202;28;20530;-68
2023/07/26 05:58:29;;;;;;;2.00;0.80;;;14.10;94.10;;;;;;5053149;28;20532;-68
2023/07/26 06:00:57;;;;;;;1.70;0.70;;;14.10;94.10;;;;;;5053463;28;20517;-69
2023/07/26 06:03:24;;;;;;;1.90;0.83;;;14.10;94.40;;;;;;5053359;28;20878;-68
2023/07/26 06:05:51;;;;;;;7.10;5.30;;;14.10;94.10;;;;;;5053469;28;20443;-68
2023/07/26 06:08:19;;;;;;;2.00;1.00;;;14.00;94.00;;;;;;5053040;28;20526;-68
2023/07/26 06:10:45;;;;;;;3.40;0.90;;;13.90;93.90;;;;;;5054026;28;20472;-68
2023/07/26 06:13:13;;;;;;;1.70;0.70;;;13.90;94.40;;;;;;5053047;28;20565;-68
2023/07/26 06:15:42;;;;;;;1.80;0.80;;;13.90;94.40;;;;;;5053342;28;20446;-71
2023/07/26 06:18:09;;;;;;;1.70;0.70;;;13.90;94.70;;;;;;5053270;28;20518;-68
2023/07/26 06:20:35;;;;;;;1.70;0.70;;;13.90;94.90;;;;;;5053359;28;20526;-68
2023/07/26 06:23:02;;;;;;;2.00;0.90;;;14.00;94.70;;;;;;5053303;28;20530;-68
2023/07/26 06:25:29;;;;;;;1.60;0.73;;;14.00;94.10;;;;;;5056112;28;20527;-68
2023/07/26 06:27:56;;;;;;;1.83;0.93;;;13.90;93.40;;;;;;5057136;28;20502;-68
2023/07/26 06:30:23;;;;;;;1.70;0.80;;;13.80;93.70;;;;;;5057139;28;20432;-68
2023/07/26 06:32:51;;;;;;;1.93;0.77;;;13.80;94.10;;;;;;5056920;28;20569;-68
2023/07/26 06:35:18;;;;;;;2.00;0.90;;;13.90;93.70;;;;;;5057010;28;20446;-68
2023/07/26 06:37:45;;;;;;;1.80;0.80;;;13.80;93.90;;;;;;5056686;28;21008;-69
2023/07/26 06:40:13;;;;;;;1.80;0.73;;;13.90;94.30;;;;;;5056869;28;20534;-68
2023/07/26 06:42:40;;;;;;;2.07;1.00;;;14.00;94.70;;;;;;5056565;28;20773;-68
2023/07/26 06:45:08;;;;;;;2.37;0.90;;;14.00;93.90;;;;;;5056861;28;20533;-68
2023/07/26 06:47:35;;;;;;;2.73;1.00;;;14.00;94.00;;;;;;5056795;28;20529;-68
2023/07/26 06:50:03;;;;;;;1.90;0.90;;;14.00;94.30;;;;;;5056456;28;20522;-68
2023/07/26 06:52:31;;;;;;;1.80;0.90;;;14.00;93.10;;;;;;5056608;28;20472;-68
2023/07/26 06:54:57;;;;;;;1.90;0.80;;;14.00;93.00;;;;;;5056671;28;20794;-68
2023/07/26 06:57:24;;;;;;;1.63;0.80;;;14.10;92.80;;;;;;5056741;28;20549;-68
2023/07/26 06:59:51;;;;;;;2.13;1.00;;;13.90;93.30;;;;;;5056660;28;20526;-68
2023/07/26 07:02:18;;;;;;;2.10;1.10;;;13.90;94.00;;;;;;5056442;28;20462;-68
2023/07/26 07:04:45;;;;;;;2.30;1.10;;;13.80;93.60;;;;;;5056175;28;20486;-68
2023/07/26 07:07:13;;;;;;;3.40;0.90;;;13.90;94.40;;;;;;5056648;28;20514;-68
2023/07/26 07:09:40;;;;;;;1.80;1.00;;;14.00;94.60;;;;;;5056126;28;20558;-68
2023/07/26 07:12:09;;;;;;;2.10;1.20;;;14.10;94.50;;;;;;5056250;28;20565;-68
2023/07/26 07:14:36;;;;;;;2.37;1.03;;;14.10;94.10;;;;;;5055911;28;20456;-74
2023/07/26 07:17:03;;;;;;;2.43;1.20;;;14.20;93.90;;;;;;5056136;28;20498;-69
2023/07/26 07:19:30;;;;;;;2.30;1.07;;;14.20;94.40;;;;;;5056243;28;20443;-68
2023/07/26 07:21:57;;;;;;;1.83;0.90;;;14.40;94.80;;;;;;5056176;28;20471;-68
2023/07/26 07:24:25;;;;;;;2.40;1.13;;;14.50;95.20;;;;;;5056076;28;20513;-68
2023/07/26 07:26:52;;;;;;;2.83;0.90;;;14.50;93.10;;;;;;5055737;28;21006;-68
2023/07/26 07:29:19;;;;;;;2.00;0.80;;;14.50;92.90;;;;;;5055797;28;20535;-68
2023/07/26 07:31:46;;;;;;;2.10;0.80;;;14.50;92.80;;;;;;5055674;28;20934;-68
2023/07/26 07:34:13;;;;;;;1.90;0.80;;;14.70;92.90;;;;;;5055929;28;20873;-68
2023/07/26 07:36:40;;;;;;;1.87;1.00;;;14.70;92.80;;;;;;5054628;28;20622;-68
2023/07/26 07:39:09;;;;;;;2.50;0.80;;;14.70;93.10;;;;;;5055715;28;20451;-70
2023/07/26 07:41:37;;;;;;;1.80;0.70;;;14.70;92.60;;;;;;5056060;28;20452;-68
2023/07/26 07:44:04;;;;;;;1.83;0.87;;;14.70;91.80;;;;;;5055471;28;20997;-68
2023/07/26 07:46:31;;;;;;;3.10;0.77;;;14.70;91.90;;;;;;5055583;28;20846;-69
2023/07/26 07:48:58;;;;;;;2.07;1.00;;;14.80;92.30;;;;;;5055712;28;20445;-68
2023/07/26 07:51:25;;;;;;;2.83;1.30;;;14.80;91.80;;;;;;5055346;28;20531;-68
2023/07/26 07:53:52;;;;;;;2.10;1.13;;;14.80;92.20;;;;;;5055607;28;20905;-68
2023/07/26 07:56:19;;;;;;;2.43;1.20;;;14.90;92.60;;;;;;5055531;28;20519;-68
2023/07/26 07:58:47;;;;;;;2.43;1.10;;;14.90;93.00;;;;;;5055672;28;20519;-68
2023/07/26 08:01:14;;;;;;;2.00;1.10;;;15.00;92.20;;;;;;5055319;28;20526;-68
2023/07/26 08:03:41;;;;;;;1.90;1.00;;;15.00;92.20;;;;;;5055279;28;20535;-68
2023/07/26 08:06:09;;;;;;;2.20;1.43;;;15.10;92.50;;;;;;5055272;28;20530;-68
2023/07/26 08:08:36;;;;;;;2.40;1.10;;;15.00;92.30;;;;;;5055262;28;20898;-68
2023/07/26 08:11:03;;;;;;;2.00;1.03;;;14.80;92.00;;;;;;5055639;28;20506;-68
2023/07/26 08:13:30;;;;;;;1.90;1.00;;;14.80;92.60;;;;;;5054828;28;20563;-68
2023/07/26 08:15:59;;;;;;;1.80;0.90;;;14.80;92.60;;;;;;5055123;28;20524;-68
2023/07/26 08:18:26;;;;;;;2.57;1.07;;;14.90;92.90;;;;;;5055041;28;20799;-68
2023/07/26 08:20:53;;;;;;;3.20;1.20;;;14.80;92.50;;;;;;5055220;28;20515;-68
2023/07/26 08:23:20;;;;;;;2.60;1.10;;;14.80;93.00;;;;;;5054987;28;20527;-68
2023/07/26 08:25:47;;;;;;;2.47;1.43;;;14.70;92.80;;;;;;5054629;28;20531;-68
2023/07/26 08:28:14;;;;;;;2.20;1.10;;;14.80;93.00;;;;;;5054852;28;20464;-68
2023/07/26 08:30:40;;;;;;;2.57;1.20;;;14.80;93.00;;;;;;5054872;28;20525;-68
2023/07/26 08:33:09;;;;;;;2.20;1.10;;;14.70;92.50;;;;;;5054598;28;20477;-68
2023/07/26 08:35:36;;;;;;;1.80;1.00;;;14.80;92.40;;;;;;5054496;28;20794;-68
2023/07/26 08:38:03;;;;;;;2.00;0.93;;;14.80;93.10;;;;;;5054654;28;20467;-69
2023/07/26 08:40:30;;;;;;;2.20;1.10;;;14.80;93.20;;;;;;5054596;28;20544;-68
2023/07/26 08:42:57;;;;;;;2.23;1.10;;;14.80;93.60;;;;;;5054714;28;20518;-68
2023/07/26 08:45:27;;;;;;;2.33;1.20;;;14.80;92.30;;;;;;5054540;28;20530;-68
2023/07/26 08:47:55;;;;;;;2.20;1.10;;;14.90;92.70;;;;;;5053981;28;20521;-68
2023/07/26 08:50:24;;;;;;;2.60;1.20;;;15.00;92.20;;;;;;5054628;28;20545;-68
2023/07/26 08:52:51;;;;;;;2.40;1.27;;;15.00;92.10;;;;;;5054527;28;20531;-68
2023/07/26 08:55:19;;;;;;;2.70;1.17;;;15.10;93.00;;;;;;5054375;28;20865;-73
2023/07/26 08:57:45;;;;;;;3.30;1.20;;;15.20;93.60;;;;;;5054371;28;20492;-68
2023/07/26 09:00:14;;;;;;;1.87;0.83;;;15.40;93.80;;;;;;5054316;28;20515;-68
2023/07/26 09:02:45;;;;;;;3.00;1.10;;;15.60;92.40;;;;;;5054404;28;20440;-67
2023/07/26 09:05:12;;;;;;;2.60;1.40;;;15.70;92.50;;;;;;5054292;28;20839;-68
2023/07/26 09:07:40;;;;;;;4.30;1.33;;;16.00;93.10;;;;;;5054158;28;20549;-68
2023/07/26 09:10:07;;;;;;;2.10;1.20;;;16.20;94.40;;;;;;5054143;28;20552;-68
2023/07/26 09:12:34;;;;;;;2.30;1.40;;;16.50;94.20;;;;;;5053715;28;20484;-68
2023/07/26 09:15:05;;;;;;;3.13;1.60;;;16.80;94.40;;;;;;5053734;28;20526;-68
2023/07/26 09:17:39;;;;;;;2.17;1.27;;;17.20;93.30;;;;;;5053713;28;20429;-69
2023/07/26 09:20:20;;;;;;;2.27;1.20;;;17.30;90.80;;;;;;5053939;28;20441;-68
2023/07/26 09:22:48;;;;;;;2.10;1.23;;;17.40;90.30;;;;;;5053898;28;20422;-68
2023/07/26 09:25:31;;;;;;;2.60;1.67;;;17.40;89.70;;;;;;5053784;28;20528;-68
2023/07/26 09:27:58;;;;;;;4.30;1.67;;;17.30;89.00;;;;;;5054106;28;20422;-68
2023/07/26 09:30:26;;;;;;;11.73;5.03;;;17.40;87.80;;;;;;5053765;28;20441;-69
2023/07/26 09:32:53;;;;;;;2.43;1.60;;;17.30;85.90;;;;;;5053679;28;20567;-68
2023/07/26 09:35:20;;;;;;;4.80;2.83;;;17.20;87.20;;;;;;5053662;28;20987;-68
2023/07/26 09:37:48;;;;;;;3.00;2.27;;;17.00;87.50;;;;;;5053655;28;20452;-68
2023/07/26 09:40:15;;;;;;;3.30;1.60;;;16.80;87.30;;;;;;5053582;28;20749;-69
2023/07/26 09:42:43;;;;;;;4.10;1.67;;;16.60;87.90;;;;;;5053655;28;20528;-68
2023/07/26 09:45:15;;;;;;;3.03;1.53;;;16.50;88.60;;;;;;5053597;28;20480;-68
2023/07/26 09:47:42;;;;;;;2.80;2.03;;;16.20;88.50;;;;;;5053609;28;20448;-68
2023/07/26 09:50:25;;;;;;;3.90;2.43;;;16.20;89.40;;;;;;5053552;28;20440;-69
2023/07/26 09:52:55;;;;;;;4.03;2.10;;;16.20;89.40;;;;;;5053550;28;20474;-68
2023/07/26 09:55:24;;;;;;;2.80;1.60;;;16.10;90.00;;;;;;5053642;28;20769;-68
2023/07/26 09:57:53;;;;;;;3.43;2.33;;;16.10;90.90;;;;;;5053597;28;20437;-70
2023/07/26 10:00:21;;;;;;;3.57;1.90;;;16.20;91.30;;;;;;5055958;28;20953;-69
2023/07/26 10:02:55;;;;;;;3.00;1.67;;;16.40;91.80;;;;;;5057607;28;20472;-69
2023/07/26 10:05:23;;;;;;;2.60;1.87;;;16.50;90.00;;;;;;5057752;28;20456;-68
2023/07/26 10:07:51;;;;;;;3.70;2.20;;;16.40;90.40;;;;;;5057277;28;20523;-68
2023/07/26 10:10:21;;;;;;;2.50;1.40;;;16.30;90.60;;;;;;5056966;28;20527;-68
2023/07/26 10:12:50;;;;;;;7.07;1.20;;;16.50;91.30;;;;;;5057594;28;20430;-68
2023/07/26 10:15:17;;;;;;;2.90;1.77;;;16.70;91.70;;;;;;5057414;28;20449;-68
2023/07/26 10:17:47;;;;;;;4.30;2.10;;;17.00;90.60;;;;;;5057215;28;20438;-68
2023/07/26 10:20:15;;;;;;;6.63;2.00;;;17.10;89.80;;;;;;5057527;28;20774;-69
2023/07/26 10:22:43;;;;;;;3.80;2.33;;;17.20;88.90;;;;;;5057162;28;21019;-68
2023/07/26 10:25:11;;;;;;;3.70;1.87;;;17.40;90.70;;;;;;5057478;28;20439;-68
2023/07/26 10:27:40;;;;;;;3.50;1.60;;;17.60;91.20;;;;;;5057516;28;20448;-68
2023/07/26 10:30:08;;;;;;;2.53;1.57;;;17.80;91.80;;;;;;5057086;28;20529;-69
2023/07/26 10:32:40;;;;;;;4.20;1.83;;;17.90;92.40;;;;;;5057061;28;20520;-68
2023/07/26 10:35:09;;;;;;;3.10;1.30;;;18.20;90.60;;;;;;5057236;28;20422;-70
2023/07/26 10:37:36;;;;;;;5.93;2.80;;;18.50;91.40;;;;;;5056713;28;20588;-68
2023/07/26 10:40:30;;;;;;;5.03;1.80;;;18.70;83.70;;;;;;5057136;28;20518;-69
2023/07/26 10:42:58;;;;;;;2.73;1.50;;;18.80;79.90;;;;;;5056654;28;20446;-69
2023/07/26 10:45:38;;;;;;;4.03;1.20;;;18.70;77.50;;;;;;5057048;28;20811;-68
2023/07/26 10:48:12;;;;;;;3.13;1.70;;;18.60;77.50;;;;;;5056654;28;20475;-68
2023/07/26 10:50:39;;;;;;;3.67;1.97;;;18.50;78.20;;;;;;5056847;28;20485;-68
2023/07/26 10:53:31;;;;;;;3.90;2.00;;;18.60;82.80;;;;;;5056497;28;20477;-68
2023/07/26 10:56:12;;;;;;;3.30;1.80;;;18.90;83.80;;;;;;5056737;28;20838;-68
2023/07/26 10:58:51;;;;;;;3.70;1.70;;;19.20;82.60;;;;;;5056864;28;20442;-68
2023/07/26 11:01:33;;;;;;;2.57;1.40;;;19.40;78.40;;;;;;5056298;28;20433;-68
2023/07/26 11:04:00;;;;;;;6.67;1.13;;;19.50;72.60;;;;;;5056518;28;20426;-68
2023/07/26 11:06:53;;;;;;;2.77;1.20;;;19.60;77.00;;;;;;5056144;28;21008;-68
2023/07/26 11:09:24;;;;;;;2.30;0.90;;;19.80;72.60;;;;;;5056298;28;20562;-68
2023/07/26 11:11:58;;;;;;;2.60;1.40;;;19.90;74.40;;;;;;5056261;28;20465;-68
2023/07/26 11:14:28;;;;;;;4.30;1.73;;;20.10;70.50;;;;;;5055909;28;21073;-68
2023/07/26 11:16:56;;;;;;;3.40;1.50;;;20.10;68.40;;;;;;5056293;28;20481;-68
2023/07/26 11:19:23;;;;;;;3.53;1.80;;;20.20;71.00;;;;;;5056219;28;20495;-69
2023/07/26 11:21:49;;;;;;;3.23;1.20;;;20.20;68.00;;;;;;5056250;28;20854;-68
2023/07/26 11:24:16;;;;;;;3.20;1.00;;;20.20;63.60;;;;;;5056148;28;21036;-68
2023/07/26 11:26:45;;;;;;;2.83;1.57;;;20.20;63.90;;;;;;5056072;28;20528;-68
2023/07/26 11:29:12;;;;;;;2.20;1.10;;;20.00;64.30;;;;;;5056234;28;20849;-70
2023/07/26 11:31:40;;;;;;;5.13;1.50;;;19.90;63.50;;;;;;5055985;28;20530;-69
2023/07/26 11:34:18;;;;;;;2.20;0.93;;;19.70;65.80;;;;;;5055886;28;20559;-68
2023/07/26 11:36:45;;;;;;;4.67;1.50;;;19.70;67.40;;;;;;5055887;28;20528;-69
2023/07/26 11:39:20;;;;;;;2.93;1.10;;;19.60;65.50;;;;;;5056036;28;20522;-68
2023/07/26 11:41:47;;;;;;;2.10;1.07;;;19.50;65.10;;;;;;5055781;28;20442;-68
2023/07/26 11:44:14;;;;;;;2.60;1.53;;;19.40;66.40;;;;;;5055414;28;20452;-68
2023/07/26 11:46:44;;;;;;;2.37;1.27;;;19.30;67.20;;;;;;5055656;28;20438;-68
2023/07/26 11:49:18;;;;;;;2.50;1.23;;;19.20;68.00;;;;;;5056020;28;20530;-68
2023/07/26 11:51:45;;;;;;;5.87;1.23;;;19.20;67.20;;;;;;5055711;28;20462;-68
2023/07/26 11:54:12;;;;;;;3.80;1.03;;;19.00;66.90;;;;;;5055187;28;21032;-68
2023/07/26 11:56:39;;;;;;;2.70;1.20;;;18.80;67.20;;;;;;5055218;28;20526;-68
2023/07/26 11:59:06;;;;;;;2.60;1.40;;;18.80;66.90;;;;;;5055499;28;20526;-68
2023/07/26 12:01:34;;;;;;;4.70;1.37;;;18.70;68.30;;;;;;5055099;28;20434;-68
2023/07/26 12:04:10;;;;;;;2.63;1.40;;;18.60;69.00;;;;;;5055305;28;20792;-68
2023/07/26 12:06:37;;;;;;;5.07;1.20;;;18.60;66.90;;;;;;5055069;28;20425;-68
2023/07/26 12:09:09;;;;;;;3.00;1.20;;;18.60;67.60;;;;;;5054837;28;20529;-68
2023/07/26 12:11:37;;;;;;;3.43;1.10;;;18.60;67.90;;;;;;5055507;28;20427;-68
2023/07/26 12:14:04;;;;;;;3.97;1.37;;;18.50;67.50;;;;;;5055162;28;20565;-68
2023/07/26 12:16:31;;;;;;;4.10;1.10;;;18.40;65.00;;;;;;5055078;28;20469;-68
2023/07/26 12:19:00;;;;;;;3.20;1.10;;;18.30;66.90;;;;;;5054709;28;20955;-68
2023/07/26 12:21:30;;;;;;;2.63;0.93;;;18.30;65.70;;;;;;5054636;28;20491;-68
2023/07/26 12:23:58;;;;;;;2.40;1.40;;;18.40;65.70;;;;;;5054756;28;20449;-68
2023/07/26 12:26:26;;;;;;;1.90;1.10;;;18.40;66.40;;;;;;5054955;28;20516;-69
2023/07/26 12:28:55;;;;;;;5.73;1.63;;;18.50;65.70;;;;;;5054937;28;20483;-68
2023/07/26 12:31:23;;;;;;;2.20;1.10;;;18.60;66.40;;;;;;5054440;28;20530;-69
2023/07/26 12:33:58;;;;;;;4.80;3.30;;;18.70;67.30;;;;;;5054844;28;20560;-69
2023/07/26 12:36:28;;;;;;;6.50;4.10;;;18.80;66.40;;;;;;5054864;28;20476;-68
2023/07/26 12:38:56;;;;;;;12.87;6.47;;;18.90;67.40;;;;;;5054396;28;20433;-68
2023/07/26 12:41:23;;;;;;;3.90;1.70;;;19.00;69.20;;;;;;5054566;28;20474;-68
2023/07/26 12:43:54;;;;;;;4.17;1.73;;;19.10;68.20;;;;;;5054556;28;20523;-68
2023/07/26 12:46:22;;;;;;;2.30;1.20;;;19.10;67.00;;;;;;5054496;28;20526;-69
2023/07/26 12:48:49;;;;;;;2.13;1.00;;;19.30;68.30;;;;;;5054420;28;20438;-68
2023/07/26 12:51:16;;;;;;;2.30;0.97;;;19.40;64.70;;;;;;5054419;28;20435;-68